Zrenjanin, Serbia
Current Conditions -  °F | °C
As of 11:30 AM on Monday 24 Nov 2014 (Local Time) from LYBT Reporting Station
Clear Clear  
Wind Chill: 45°   Ceiling: Unl
Heat Index: 45°   Visibility: 4mi
Dew Point: 36°   Wind: 3mph
Humidity: 71%   Direction: 130°SE
Pressure: 30.36"   Gusts: NA
Location:  45.37°N, 20.4°E
Report Text: LYBT 240930Z 13003KT 070V180 6000 NSC 07/02 Q1028 NOSIG
Loading
Personal Weather Stations






























Interactive Weather Map New forecast layout! Learn more

10-Day Weather Forecast

Advertisements
Track Severe Weather on mobile